Detalii statie TARCEA AGRO TARCEA [0000197E]

Toti senzorii

Date Temperatura solului [C]Precipitatii [mm]Voltaj baterie [mV]Leaf Wetness [Min]HC Air temperature [C]HC Relative humidity [%]Punctul de roua [C]
medieminmaxsumaultimatimpmedieminmaxmediemediemin
2018-08-12 11:00:00 26.8 26.6 27.3 0 7206 28.36 27.02 29.36 50.47 16.9 16.5
2018-08-12 12:00:00 27.6 27.2 28.1 0 7128 30.08 29.12 31.16 43.17 15.9 15.2
2018-08-12 13:00:00 28.6 28 29 0 7166 30.37 29.33 31.86 41.21 15.4 14.9
2018-08-12 14:00:00 29.5 29.1 29.9 0 7254 31.34 30.19 32.3 38.28 15.2 14.6
2018-08-12 15:00:00 30.3 30.1 30.7 0 7088 31.66 30.67 32.45 35.32 14.2 13.1
2018-08-12 16:00:00 31.1 30.8 31.4 0 7196 32.04 31.42 32.72 32.37 13.1 12.2
2018-08-12 17:00:00 31.5 31.4 31.7 0 7158 31.28 30.25 32.25 31.3 11.9 10.2
2018-08-12 18:00:00 31.5 31.4 31.7 0 7088 30.92 30.49 31.57 29.08 10.5 9.9
2018-08-12 19:00:00 31.3 31.2 31.6 0 7030 29.96 29.13 30.31 30.09 10.2 9.6
2018-08-12 20:00:00 31 30.7 31.3 0 6932 27.43 26.39 28.98 36.83 11 10.6
2018-08-12 21:00:00 30.4 30.1 30.6 0 6894 24.3 22.08 26.1 48.14 12.3 11.5
2018-08-12 22:00:00 29.8 29.5 30.1 0 6884 21.62 20.82 22.52 58.88 13 12.5
2018-08-12 23:00:00 29.2 29 29.6 0 6864 20.43 20.02 21.31 65.18 13.5 13
2018-08-13 00:00:00 28.7 28.4 29 0 6834 19.8 19.46 20.19 69.86 13.9 13.6
2018-08-13 01:00:00 28.2 28 28.3 0 6816 19.03 18.42 19.36 74.88 14.3 13.9
2018-08-13 02:00:00 27.7 27.5 28 0 6816 18.31 17.5 19 78.97 14.4 14
2018-08-13 03:00:00 27.3 27.1 27.7 0 6816 18 16.74 18.44 79.93 14.3 13.8
2018-08-13 04:00:00 26.9 26.7 27.2 0 6816 16.72 16.32 17.27 85.89 14.1 13.6
2018-08-13 05:00:00 26.5 26.1 26.9 0 6816 17.22 17.07 17.41 85.54 14.6 14.4
2018-08-13 06:00:00 26.2 25.9 26.6 0 6806 17.11 16.85 17.36 86.11 14.6 14.3
2018-08-13 07:00:00 25.8 25.5 26.2 0 6844 18.54 17.28 20.41 80.95 15 14.6
2018-08-13 08:00:00 25.6 25.5 25.7 0 6874 23.33 20.47 25.79 65.77 16.3 15.8
2018-08-13 09:00:00 25.6 25.5 25.8 0 6904 27.35 26.18 28.14 52.52 16.5 16.2
2018-08-13 10:00:00 26 25.7 26.4 0 6992 28.86 28.42 29.56 47.58 16.4 15.8
2018-08-13 11:00:00 26.8 26.4 27.1 0 7070 30.37 29.14 30.95 42.95 16.1 15.2
2018-08-13 12:00:00 27.6 27.2 28 0 7118 31.27 30.71 31.8 39.12 15.4 15
2018-08-13 13:00:00 28.5 28 29 0 7186 32.24 31.17 33.46 35.88 15 13.8
2018-08-13 14:00:00 29.4 29 29.8 0 7236 32.6 30.92 33.46 34.23 14.5 13.8
2018-08-13 15:00:00 30.2 29.8 30.8 0 7128 32.86 31.39 33.88 33.2 14.2 13.7
2018-08-13 16:00:00 30.9 30.6 31.2 0 7254 33.06 31.8 33.94 32.11 13.9 13.3
2018-08-13 17:00:00 31.3 31.2 31.6 0 7118 32.79 32.16 33.26 32.11 13.7 12.8
2018-08-13 18:00:00 31.4 31.4 31.7 0 7098 32.05 31.48 32.58 32.16 13 12.7
2018-08-13 19:00:00 31.4 31.2 31.6 0 7010 30.62 29.43 31.52 36.45 13.8 13.4
2018-08-13 20:00:00 31.1 30.9 31.2 0 6922 27.43 25.95 29.12 47.32 14.9 14.5
2018-08-13 21:00:00 30.5 30.3 30.9 0 6864 25.15 24.39 25.99 56.58 15.7 15.5
2018-08-13 22:00:00 30 29.8 30.3 0 6844 23.21 22.01 24.24 65.38 16.1 15.9
2018-08-13 23:00:00 29.4 29.2 29.8 0 6844 21.7 21.04 22.3 73.85 16.6 16.2
2018-08-14 00:00:00 28.9 28.5 29.3 0 6826 21.14 20.15 21.76 76.6 16.7 16.3
2018-08-14 01:00:00 28.4 28.3 28.8 0 6826 20.6 20.39 20.78 77.19 16.3 15.9
2018-08-14 02:00:00 28 27.9 28.3 0 6826 19.85 19.46 20.37 79.5 16 15.9
2018-08-14 03:00:00 27.6 27.4 27.9 0 6816 19.18 18.56 19.76 81.35 15.8 15.2
2018-08-14 04:00:00 27.2 27 27.5 0 6816 18.98 18.6 19.31 81.39 15.6 15.4
2018-08-14 05:00:00 26.9 26.8 27.1 0 6806 18.15 17.59 18.39 83.82 15.1 14.8
2018-08-14 06:00:00 26.5 26.4 26.7 0 6806 17.29 17.11 17.67 86.39 14.8 14.6
2018-08-14 07:00:00 26.1 25.9 26.4 0 6844 18.3 17.22 19.83 84.58 15.5 15
2018-08-14 08:00:00 25.9 25.5 26.2 0 6854 23.8 20.12 26.67 62.8 15.9 15.3